createdAt,value
2022-11-12T00:03:02.486Z,101195.00
2022-11-12T00:06:26.022Z,101196.16
2022-11-12T00:09:49.179Z,101178.31
2022-11-12T00:13:13.809Z,101189.56
2022-11-12T00:16:37.557Z,101186.03
2022-11-12T00:20:01.894Z,101175.16
2022-11-12T00:23:25.262Z,101179.47
2022-11-12T00:26:48.841Z,101194.47
2022-11-12T00:30:13.769Z,101195.94
2022-11-12T00:33:42.351Z,101200.44
2022-11-12T00:37:07.409Z,101192.78
2022-11-12T00:40:31.210Z,101194.63
2022-11-12T00:43:54.785Z,101193.28
2022-11-12T00:47:18.749Z,101198.56
2022-11-12T00:50:42.121Z,101200.34
2022-11-12T00:54:07.337Z,101190.72
2022-11-12T00:57:31.497Z,101214.19
2022-11-12T01:00:55.159Z,101207.56
2022-11-12T01:04:18.970Z,101202.41
2022-11-12T01:07:42.653Z,101211.97
2022-11-12T01:11:13.928Z,101212.81
2022-11-12T01:14:39.830Z,101217.84
2022-11-12T01:18:21.987Z,101239.44
2022-11-12T01:21:46.000Z,101238.66
2022-11-12T01:25:11.448Z,101239.28
2022-11-12T01:28:37.081Z,101235.94
2022-11-12T01:32:00.700Z,101256.16
2022-11-12T01:35:24.271Z,101242.63
2022-11-12T01:38:49.554Z,101219.41
2022-11-12T01:42:14.038Z,101247.53
2022-11-12T01:45:40.353Z,101243.47
2022-11-12T01:49:06.924Z,101236.66
2022-11-12T01:52:35.820Z,101245.16
2022-11-12T01:55:59.782Z,101226.94
2022-11-12T01:59:29.294Z,101237.28
2022-11-12T02:02:59.302Z,101244.31
2022-11-12T02:06:24.490Z,101242.50
2022-11-12T02:09:48.325Z,101240.06
2022-11-12T02:13:30.340Z,101245.00
2022-11-12T02:16:53.752Z,101251.78
2022-11-12T02:20:21.058Z,101253.41
2022-11-12T02:23:46.473Z,101262.00
2022-11-12T02:27:11.743Z,101256.88
2022-11-12T02:30:37.046Z,101248.31
2022-11-12T02:34:02.665Z,101256.09
2022-11-12T02:37:26.584Z,101253.34
2022-11-12T02:40:52.556Z,101255.19
2022-11-12T02:44:16.593Z,101265.25
2022-11-12T02:47:40.146Z,101268.66
2022-11-12T02:51:04.218Z,101283.94
2022-11-12T02:54:27.997Z,101284.91
2022-11-12T02:57:52.958Z,101298.66
2022-11-12T03:01:16.078Z,101307.19
2022-11-12T03:04:39.266Z,101314.91
2022-11-12T03:08:05.302Z,101322.47
2022-11-12T03:11:28.733Z,101311.44
2022-11-12T03:14:54.130Z,101295.88
2022-11-12T03:18:26.709Z,101318.06
2022-11-12T03:21:50.745Z,101333.50
2022-11-12T03:25:18.115Z,101339.59
2022-11-12T03:28:42.035Z,101349.00
2022-11-12T03:32:07.408Z,101350.63
2022-11-12T03:35:30.834Z,101354.22
2022-11-12T03:38:54.583Z,101376.56
2022-11-12T03:42:17.979Z,101388.47
2022-11-12T03:45:42.247Z,101383.44
2022-11-12T03:49:06.978Z,101404.88
2022-11-12T03:52:30.687Z,101388.94
2022-11-12T03:55:54.032Z,101376.97
2022-11-12T03:59:17.741Z,101384.75
2022-11-12T04:02:40.869Z,101371.34
2022-11-12T04:06:23.543Z,101385.69
2022-11-12T04:09:46.966Z,101395.28
2022-11-12T04:13:29.926Z,101393.63
2022-11-12T04:17:16.241Z,101421.94
2022-11-12T04:21:02.132Z,101427.00
2022-11-12T04:24:46.804Z,101422.03
2022-11-12T04:28:11.129Z,101434.16
2022-11-12T04:31:33.509Z,101435.91
2022-11-12T04:34:57.629Z,101428.22
2022-11-12T04:38:23.043Z,101432.75
2022-11-12T04:42:05.415Z,101450.59
2022-11-12T04:45:29.089Z,101434.38
2022-11-12T04:48:52.326Z,101441.31
2022-11-12T04:52:16.493Z,101456.84
2022-11-12T04:55:40.037Z,101464.72
2022-11-12T04:59:04.834Z,101481.84
2022-11-12T05:02:28.679Z,101499.09
2022-11-12T05:05:52.245Z,101505.09
2022-11-12T05:09:16.745Z,101501.72
2022-11-12T05:12:40.368Z,101500.84
2022-11-12T05:16:05.752Z,101511.38
2022-11-12T05:19:29.396Z,101530.00
2022-11-12T05:23:06.713Z,101541.28
2022-11-12T05:26:31.081Z,101546.47
2022-11-12T05:29:55.070Z,101551.78
2022-11-12T05:33:23.463Z,101551.78
2022-11-12T05:36:47.589Z,101557.09
2022-11-12T05:40:13.147Z,101568.31
2022-11-12T05:43:36.821Z,101576.78
2022-11-12T05:47:00.473Z,101581.09
2022-11-12T05:50:28.226Z,101583.81
2022-11-12T05:53:58.265Z,101606.13
2022-11-12T05:57:21.953Z,101624.03
2022-11-12T06:00:45.460Z,101634.41
2022-11-12T06:04:09.458Z,101642.34
2022-11-12T06:07:34.157Z,101642.22
2022-11-12T06:10:57.996Z,101634.53
2022-11-12T06:14:20.999Z,101650.25
2022-11-12T06:17:44.694Z,101666.44
2022-11-12T06:21:23.627Z,101681.19
2022-11-12T06:24:48.636Z,101678.56
2022-11-12T06:28:17.953Z,101693.16
2022-11-12T06:31:42.215Z,101693.16
2022-11-12T06:35:05.805Z,101694.00
2022-11-12T06:38:29.716Z,101711.13
2022-11-12T06:41:54.899Z,101720.50
2022-11-12T06:45:18.678Z,101732.72
2022-11-12T06:48:43.346Z,101755.81
2022-11-12T06:52:07.070Z,101764.44
2022-11-12T06:55:30.439Z,101767.00
2022-11-12T06:58:55.546Z,101758.53
2022-11-12T07:02:18.550Z,101773.19
2022-11-12T07:05:42.908Z,101781.75
2022-11-12T07:09:07.638Z,101792.06
2022-11-12T07:12:31.233Z,101794.81
2022-11-12T07:15:58.919Z,101797.38
2022-11-12T07:19:22.819Z,101821.31
2022-11-12T07:22:46.068Z,101820.59
2022-11-12T07:26:16.749Z,101836.75
2022-11-12T07:29:48.258Z,101841.06
2022-11-12T07:33:16.789Z,101853.03
2022-11-12T07:36:39.775Z,101851.34
2022-11-12T07:40:04.699Z,101871.25
2022-11-12T07:43:27.709Z,101890.75
2022-11-12T07:46:51.545Z,101900.97
2022-11-12T07:50:16.501Z,101908.66
2022-11-12T07:53:40.078Z,101929.31
2022-11-12T07:57:03.092Z,101934.38
2022-11-12T08:00:26.594Z,101933.53
2022-11-12T08:03:49.894Z,101944.88
2022-11-12T08:07:16.081Z,101949.38
2022-11-12T08:10:39.770Z,101958.50
2022-11-12T08:14:04.263Z,101968.97
2022-11-12T08:17:27.479Z,101974.84
2022-11-12T08:20:51.619Z,101985.03
2022-11-12T08:24:16.151Z,102001.50
2022-11-12T08:27:40.430Z,102002.16
2022-11-12T08:31:06.912Z,102004.03
2022-11-12T08:34:31.333Z,102004.88
2022-11-12T08:37:59.267Z,102010.91
2022-11-12T08:41:24.529Z,102017.59
2022-11-12T08:44:47.953Z,102014.94
2022-11-12T08:48:14.993Z,102028.69
2022-11-12T08:51:38.194Z,102040.59
2022-11-12T08:55:02.366Z,102036.47
2022-11-12T08:58:28.321Z,102042.34
2022-11-12T09:01:52.365Z,102045.75
2022-11-12T09:05:16.313Z,102059.38
2022-11-12T09:08:40.080Z,102075.63
2022-11-12T09:12:12.381Z,102070.47
2022-11-12T09:15:40.356Z,102073.88
2022-11-12T09:19:03.228Z,102084.16
2022-11-12T09:22:27.972Z,102101.25
2022-11-12T09:25:50.777Z,102100.41
2022-11-12T09:29:14.258Z,102108.06
2022-11-12T09:32:39.130Z,102109.78
2022-11-12T09:36:04.537Z,102113.13
2022-11-12T09:39:27.560Z,102108.88
2022-11-12T09:42:54.049Z,102131.00
2022-11-12T09:46:29.823Z,102146.50
2022-11-12T09:50:04.309Z,102155.75
2022-11-12T09:53:34.185Z,102166.13
2022-11-12T09:56:58.037Z,102169.50
2022-11-12T10:00:24.268Z,102171.22
2022-11-12T10:03:58.211Z,102166.16
2022-11-12T10:07:37.702Z,102178.09
2022-11-12T10:11:11.857Z,102186.53
2022-11-12T10:15:22.385Z,102196.00
2022-11-12T10:19:02.939Z,102202.72
2022-11-12T10:22:41.064Z,102201.97
2022-11-12T10:26:14.041Z,102217.25
2022-11-12T10:29:41.324Z,102215.47
2022-11-12T10:33:05.734Z,102223.22
2022-11-12T10:36:33.520Z,102231.78
2022-11-12T10:39:58.674Z,102232.63
2022-11-12T10:43:26.194Z,102228.28
2022-11-12T10:46:50.678Z,102231.59
2022-11-12T10:50:21.830Z,102243.69
2022-11-12T10:53:45.357Z,102257.13
2022-11-12T10:57:23.480Z,102263.94
2022-11-12T11:01:03.992Z,102263.22
2022-11-12T11:04:34.812Z,102281.13
2022-11-12T11:07:59.377Z,102287.06
2022-11-12T11:11:27.253Z,102286.16
2022-11-12T11:15:08.932Z,102287.94
2022-11-12T11:18:36.166Z,102302.53
2022-11-12T11:22:15.117Z,102300.84
2022-11-12T11:25:38.979Z,102308.59
2022-11-12T11:29:21.326Z,102315.38
2022-11-12T11:33:24.030Z,102315.19
2022-11-12T11:36:59.073Z,102322.19
2022-11-12T11:40:28.193Z,102331.59
2022-11-12T11:44:03.265Z,102334.25
2022-11-12T11:47:57.671Z,102341.09
2022-11-12T11:51:39.875Z,102348.00
2022-11-12T11:55:18.420Z,102337.81
2022-11-12T11:59:00.440Z,102340.44
2022-11-12T12:02:42.958Z,102358.44
2022-11-12T12:06:21.342Z,102363.63
2022-11-12T12:09:52.670Z,102372.41
2022-11-12T12:13:25.752Z,102381.00
2022-11-12T12:17:00.801Z,102368.13
2022-11-12T12:20:30.477Z,102374.91
2022-11-12T12:23:56.619Z,102378.41
2022-11-12T12:27:25.431Z,102369.75
2022-11-12T12:30:51.887Z,102368.16
2022-11-12T12:34:23.178Z,102371.50
2022-11-12T12:37:53.649Z,102374.91
2022-11-12T12:41:27.854Z,102385.97
2022-11-12T12:45:05.594Z,102393.69
2022-11-12T12:48:31.681Z,102396.47
2022-11-12T12:51:56.051Z,102392.97
2022-11-12T12:55:38.588Z,102409.31
2022-11-12T12:59:03.833Z,102421.28
2022-11-12T13:02:28.798Z,102420.63
2022-11-12T13:06:08.313Z,102424.88
2022-11-12T13:09:33.306Z,102418.78
2022-11-12T13:13:06.591Z,102425.50
2022-11-12T13:16:59.620Z,102418.75
2022-11-12T13:20:43.158Z,102417.13
2022-11-12T13:24:12.152Z,102415.59
2022-11-12T13:28:06.935Z,102415.63
2022-11-12T13:31:34.101Z,102418.22
2022-11-12T13:35:29.242Z,102419.13
2022-11-12T13:38:59.764Z,102436.31
2022-11-12T13:42:41.778Z,102442.34
2022-11-12T13:46:27.724Z,102444.97
2022-11-12T13:49:50.992Z,102465.72
2022-11-12T13:53:24.552Z,102470.13
2022-11-12T13:56:49.109Z,102466.78
2022-11-12T14:00:29.037Z,102488.25
2022-11-12T14:03:53.603Z,102482.38
2022-11-12T14:07:33.497Z,102489.31
2022-11-12T14:11:10.876Z,102488.44
2022-11-12T14:15:03.364Z,102491.03
2022-11-12T14:18:33.943Z,102506.59
2022-11-12T14:22:02.892Z,102517.03
2022-11-12T14:25:28.613Z,102527.44
2022-11-12T14:28:58.161Z,102528.31
2022-11-12T14:32:22.540Z,102544.63
2022-11-12T14:35:46.613Z,102542.09
2022-11-12T14:39:12.506Z,102538.81
2022-11-12T14:42:36.930Z,102540.56
2022-11-12T14:46:01.268Z,102556.00
2022-11-12T14:49:37.321Z,102557.88
2022-11-12T14:53:07.162Z,102563.88
2022-11-12T14:56:37.208Z,102566.59
2022-11-12T15:00:00.356Z,102570.09
2022-11-12T15:03:31.602Z,102576.91
2022-11-12T15:06:58.498Z,102582.19
2022-11-12T15:10:35.806Z,102599.25
2022-11-12T15:14:03.846Z,102595.13
2022-11-12T15:17:33.990Z,102590.00
2022-11-12T15:21:14.503Z,102604.59
2022-11-12T15:24:43.896Z,102597.72
2022-11-12T15:28:15.325Z,102602.97
2022-11-12T15:31:46.478Z,102608.06
2022-11-12T15:35:37.033Z,102621.88
2022-11-12T15:39:00.434Z,102633.09
2022-11-12T15:42:29.251Z,102645.03
2022-11-12T15:45:54.982Z,102643.34
2022-11-12T15:49:18.402Z,102654.47
2022-11-12T15:52:42.613Z,102646.91
2022-11-12T15:56:07.503Z,102652.06
2022-11-12T15:59:32.592Z,102666.69
2022-11-12T16:02:59.331Z,102670.97
2022-11-12T16:06:22.893Z,102675.28
2022-11-12T16:09:46.351Z,102683.88
2022-11-12T16:13:16.805Z,102682.25
2022-11-12T16:16:41.202Z,102683.06
2022-11-12T16:20:13.630Z,102679.63
2022-11-12T16:23:37.440Z,102681.38
2022-11-12T16:27:02.488Z,102677.19
2022-11-12T16:30:31.621Z,102680.59
2022-11-12T16:33:56.974Z,102684.88
2022-11-12T16:37:20.456Z,102683.19
2022-11-12T16:40:46.498Z,102685.81
2022-11-12T16:44:09.840Z,102694.38
2022-11-12T16:47:33.565Z,102701.22
2022-11-12T16:51:01.442Z,102693.53
2022-11-12T16:54:25.211Z,102707.25
2022-11-12T16:57:48.854Z,102711.59
2022-11-12T17:01:16.672Z,102709.03
2022-11-12T17:04:39.993Z,102722.72
2022-11-12T17:08:04.940Z,102717.59
2022-11-12T17:11:28.037Z,102720.22
2022-11-12T17:14:52.229Z,102723.72
2022-11-12T17:18:16.447Z,102728.78
2022-11-12T17:21:40.553Z,102732.19
2022-11-12T17:25:05.502Z,102730.47
2022-11-12T17:28:30.862Z,102733.91
2022-11-12T17:31:54.173Z,102745.88
2022-11-12T17:35:18.250Z,102750.13
2022-11-12T17:38:41.829Z,102749.34
2022-11-12T17:42:07.579Z,102762.97
2022-11-12T17:45:30.991Z,102766.44
2022-11-12T17:48:55.815Z,102768.13
2022-11-12T17:52:18.843Z,102773.28
2022-11-12T17:55:42.652Z,102774.16
2022-11-12T17:59:07.265Z,102781.84
2022-11-12T18:02:31.167Z,102792.13
2022-11-12T18:06:01.014Z,102796.41
2022-11-12T18:09:24.894Z,102809.22
2022-11-12T18:12:48.603Z,102817.78
2022-11-12T18:16:19.225Z,102830.59
2022-11-12T18:19:42.368Z,102826.34
2022-11-12T18:23:06.109Z,102832.34
2022-11-12T18:26:29.327Z,102844.28
2022-11-12T18:29:53.209Z,102851.97
2022-11-12T18:33:17.767Z,102849.41
2022-11-12T18:36:41.385Z,102863.94
2022-11-12T18:40:05.132Z,102857.09
2022-11-12T18:43:29.532Z,102854.53
2022-11-12T18:46:53.615Z,102868.19
2022-11-12T18:50:19.424Z,102865.63
2022-11-12T18:53:43.938Z,102864.78
2022-11-12T18:57:07.800Z,102866.50
2022-11-12T19:00:30.871Z,102875.91
2022-11-12T19:03:56.884Z,102882.72
2022-11-12T19:07:21.520Z,102884.44
2022-11-12T19:10:45.479Z,102889.56
2022-11-12T19:14:08.873Z,102891.25
2022-11-12T19:17:32.455Z,102893.81
2022-11-12T19:21:02.833Z,102903.19
2022-11-12T19:24:27.884Z,102895.50
2022-11-12T19:27:51.251Z,102901.50
2022-11-12T19:31:17.184Z,102907.47
2022-11-12T19:34:40.327Z,102905.75
2022-11-12T19:38:03.912Z,102913.44
2022-11-12T19:41:28.489Z,102916.00
2022-11-12T19:44:52.665Z,102919.41
2022-11-12T19:48:16.101Z,102938.19
2022-11-12T19:51:40.013Z,102934.75
2022-11-12T19:55:03.598Z,102938.16
2022-11-12T19:58:28.873Z,102933.88
2022-11-12T20:01:52.788Z,102944.03
2022-11-12T20:05:17.098Z,102944.06
2022-11-12T20:08:40.674Z,102942.34
2022-11-12T20:12:05.329Z,102958.56
2022-11-12T20:15:30.847Z,102964.56
2022-11-12T20:18:55.643Z,102967.91
2022-11-12T20:22:19.236Z,102964.53
2022-11-12T20:25:43.085Z,102971.34
2022-11-12T20:29:06.288Z,102966.19
2022-11-12T20:32:31.382Z,102967.91
2022-11-12T20:35:54.772Z,102978.94
2022-11-12T20:39:18.984Z,102983.22
2022-11-12T20:42:42.946Z,102986.63
2022-11-12T20:46:07.408Z,102986.63
2022-11-12T20:49:32.264Z,102985.78
2022-11-12T20:52:56.342Z,102990.06
2022-11-12T20:56:22.716Z,102992.56
2022-11-12T20:59:46.509Z,103003.69
2022-11-12T21:03:16.798Z,102995.13
2022-11-12T21:06:42.237Z,103005.31
2022-11-12T21:10:06.370Z,103002.72
2022-11-12T21:13:30.749Z,103000.13
2022-11-12T21:16:53.804Z,103005.25
2022-11-12T21:20:17.821Z,103006.06
2022-11-12T21:23:44.864Z,103011.13
2022-11-12T21:27:08.713Z,103001.75
2022-11-12T21:30:32.445Z,103009.31
2022-11-12T21:34:00.255Z,103002.44
2022-11-12T21:37:23.458Z,103001.66
2022-11-12T21:40:48.543Z,103010.19
2022-11-12T21:44:14.374Z,103011.84
2022-11-12T21:47:38.863Z,103017.81
2022-11-12T21:51:04.849Z,103015.22
2022-11-12T21:54:28.593Z,103015.13
2022-11-12T21:57:53.077Z,103013.47
2022-11-12T22:01:20.318Z,103014.34
2022-11-12T22:04:43.796Z,103024.50
2022-11-12T22:08:07.605Z,103014.25
2022-11-12T22:11:30.806Z,103014.25
2022-11-12T22:14:56.053Z,103015.94
2022-11-12T22:18:19.846Z,103023.53
2022-11-12T22:21:43.862Z,103025.13
2022-11-12T22:25:08.577Z,103029.31
2022-11-12T22:28:34.354Z,103033.66
2022-11-12T22:31:58.930Z,103039.56
2022-11-12T22:35:22.625Z,103037.00
2022-11-12T22:38:47.798Z,103041.22
2022-11-12T22:42:13.137Z,103044.59
2022-11-12T22:45:36.937Z,103032.56
2022-11-12T22:49:02.661Z,103039.53
2022-11-12T22:52:25.880Z,103042.91
2022-11-12T22:55:49.828Z,103048.75
2022-11-12T22:59:14.010Z,103057.25
2022-11-12T23:02:40.316Z,103060.59
2022-11-12T23:06:10.545Z,103062.25
2022-11-12T23:09:34.501Z,103068.16
2022-11-12T23:12:58.124Z,103079.16
2022-11-12T23:16:25.904Z,103074.88
2022-11-12T23:19:49.213Z,103074.03
2022-11-12T23:23:16.206Z,103079.91
2022-11-12T23:26:39.498Z,103079.63
2022-11-12T23:30:03.702Z,103080.53
2022-11-12T23:33:26.866Z,103074.56
2022-11-12T23:36:50.730Z,103088.97
2022-11-12T23:40:17.478Z,103088.31
2022-11-12T23:43:41.909Z,103092.72
2022-11-12T23:47:05.600Z,103086.81
2022-11-12T23:50:29.557Z,103070.66
2022-11-12T23:53:52.602Z,103086.78
2022-11-12T23:57:20.044Z,103081.69
